Portland International Jetport (PWM/KPWM)




Flight Aircraft Arriving
CPX429 B738
KIAD - Washington Dulles International Airport
United StatesVirginia Dulles, Virginia
Flight Aircraft Departing
CPX428 B738
KIAD - Washington Dulles International Airport
United StatesVirginia Dulles, Virginia
Airport Information
Location: Portland, US
Coordinates: 43.6456 / -70.3086
Elevation:
Time Offset:
Local Time:
UTC Time:
Jet A Price: $0.66/lbs

Current Weather
METAR: KPWM 052251Z 16005KT 2SM BR OVC004 19/17 A2995 RMK AO2 RAE05 SLP142 P0001 T01890172 $
TAF: KPWM 052120Z 0521/0618 14006KT 1SM -DZ BR OVC003 FM061400 02007KT P6SM SCT050

Recent Arrivals
Date Flight Type Depart
08/08/2019 CPX428 B752 Washington Dulles International Airport (KIAD)
12/03/2018 CPX528 B752 Washington Dulles International Airport (KIAD)
03/28/2018 CPX528 B752 Washington Dulles International Airport (KIAD)
Recent Departures
Date Flight Type Arrive
08/10/2019 CPX429 B752 Washington Dulles International Airport (KIAD)
12/04/2018 CPX529 B752 Washington Dulles International Airport (KIAD)
03/31/2018 CPX529 B752 Washington Dulles International Airport (KIAD)